1998 SELWYN (1997360S12111)


On this page: IBTrACS data - Map and Plots - Positions - Intensities - Original source data

Summary

Start Dec 25
End Jan 3
Basin SI
LMI 85 kt
Sources jtwc_sh
bom
neumann
In WMO? Yes
Previous storm 1998 SID (SI)
Previous in basin 1998 SID (SI)
Concurrent storms 1998 SUSAN (SP)
1998 SID (SI)
1998 SELWYN (SI)
1998 RON (SP)
1998 KATRINA (SP)
Next in basin 1998 A19798 (SI)
Next storm 1998 RON (SP)

top of page IBTrACS Data: File Access

Image of storm

top of page Plots:

Map of storm track will not appear if FTP is down
Time series of cyclone Maximum Sustained Wind will not appear if FTP is down
Time series of cyclone Minimum Central Pressure will not appear if FTP is down

top of page Track Data:Position

jtwc_sh bom neumann
Date Lat Lon Lat Lon Lat Lon
1997-12-25 18:00:00 -12.0 111.0 -11.9 111.0 -11.9 110.9
1997-12-26 00:00:00 -12.1 111.5 -11.9 111.4 -11.9 111.2
1997-12-26 06:00:00 -12.5 111.9 -12.2 111.9 -12.0 111.8
1997-12-26 12:00:00 -12.8 111.8 -12.9 111.7 -12.7 111.8
1997-12-26 18:00:00 -13.3 111.6 -13.6 111.3 -13.4 111.5
1997-12-27 00:00:00 -13.9 111.1 -14.2 110.9 -14.0 111.0
1997-12-27 06:00:00 -14.5 110.5 -14.7 110.4 -14.5 110.6
1997-12-27 12:00:00 -14.9 110.0 -15.0 109.8 -15.0 110.0
1997-12-27 18:00:00 -15.3 109.4 -15.2 109.3 -15.1 109.4
1997-12-28 00:00:00 -15.6 108.9 -15.6 108.8 -15.5 109.0
1997-12-28 06:00:00 -15.9 108.4 -16.0 108.3 -15.9 108.4
1997-12-28 12:00:00 -16.3 107.8 -16.3 107.8 -16.3 108.0
1997-12-28 18:00:00 -16.8 107.3 -16.6 107.0 -16.4 107.3
1997-12-29 00:00:00 -17.1 106.5 -17.1 106.2 -17.0 106.5
1997-12-29 06:00:00 -17.4 105.6 -17.3 105.4 -17.3 105.7
1997-12-29 12:00:00 -17.5 104.7 -17.2 104.5 -17.2 104.8
1997-12-29 18:00:00 -17.4 103.9 -17.1 103.7 -17.1 104.0
1997-12-30 00:00:00 -17.1 103.0 -17.1 102.9 -17.1 103.2
1997-12-30 06:00:00 -16.9 102.1 -16.9 101.9 -17.0 102.2
1997-12-30 12:00:00 -16.6 101.4 -16.6 101.2 -16.7 101.4
1997-12-30 18:00:00 -16.5 100.7 -16.5 100.4 -16.5 100.7
1997-12-31 00:00:00 -16.4 100.0 -16.4 99.6 -16.4 99.9
1997-12-31 06:00:00 -16.3 99.2 -16.4 98.8 -16.4 99.1
1997-12-31 12:00:00 -16.3 98.2 -16.5 98.0 -16.5 98.3
1997-12-31 18:00:00 -16.3 97.2 -16.5 97.0 -16.5 97.3
jtwc_sh bom neumann
1998-01-01 00:00:00 -16.4 96.2 -16.7 96.0 -16.6 96.3
1998-01-01 06:00:00 -16.6 95.2 -17.0 95.0 -16.9 95.3
1998-01-01 12:00:00 -16.8 94.3 -17.3 94.1 -17.2 94.4
1998-01-01 18:00:00 -17.3 93.3 -17.7 93.1 -17.6 93.5
1998-01-02 00:00:00 -17.6 91.9 -18.1 91.7 -18.0 92.2
1998-01-02 06:00:00 -18.3 90.7 -18.5 90.4 -18.3 90.8
1998-01-02 12:00:00 -18.9 89.8 -19.0 89.4 -18.8 89.6
1998-01-02 18:00:00 -19.4 89.0 -19.4 88.8 -19.3 89.0
1998-01-03 00:00:00 -19.8 88.0 -19.7 88.3

top of pageTrack Data:Intensity

jtwc_sh bom neumann
Date Wind Pres Wind Pres Wind Pres
1997-12-25 18:00:00 20. 1006. 15. 1006.
1997-12-26 00:00:00 25. 21. 1004. 20. 1004.
1997-12-26 06:00:00 25. 23. 1002. 25. 1002.
1997-12-26 12:00:00 30. 27. 1000. 30. 1000.
1997-12-26 18:00:00 30. 35. 995. 40. 995.
1997-12-27 00:00:00 35. 41. 990. 45. 990.
1997-12-27 06:00:00 45. 49. 985. 55. 985.
1997-12-27 12:00:00 65. 60. 975. 70. 975.
1997-12-27 18:00:00 60. 70. 965. 80. 965.
1997-12-28 00:00:00 65. 76. 960. 85. 960.
1997-12-28 06:00:00 65. 76. 960. 85. 960.
1997-12-28 12:00:00 65. 76. 960. 85. 960.
1997-12-28 18:00:00 65. 70. 965. 80. 965.
1997-12-29 00:00:00 65. 70. 965. 80. 965.
1997-12-29 06:00:00 60. 64. 970. 75. 970.
1997-12-29 12:00:00 50. 64. 970. 75. 970.
1997-12-29 18:00:00 45. 60. 975. 70. 975.
1997-12-30 00:00:00 45. 54. 980. 60. 980.
1997-12-30 06:00:00 45. 49. 985. 55. 985.
1997-12-30 12:00:00 40. 41. 990. 45. 990.
1997-12-30 18:00:00 35. 35. 995. 40. 995.
1997-12-31 00:00:00 35. 29. 998. 35. 998.
1997-12-31 06:00:00 35. 29. 998. 35. 998.
1997-12-31 12:00:00 35. 27. 1000. 30. 1000.
1997-12-31 18:00:00 35. 27. 1000. 30. 1000.
jtwc_sh bom neumann
1998-01-01 00:00:00 30. 27. 1000. 30. 1000.
1998-01-01 06:00:00 25. 29. 998. 35. 998.
1998-01-01 12:00:00 25. 29. 998. 35. 998.
1998-01-01 18:00:00 30. 27. 1000. 30. 1000.
1998-01-02 00:00:00 25. 27. 1000. 30. 1000.
1998-01-02 06:00:00 25. 27. 1000. 30. 1000.
1998-01-02 12:00:00 25. 27. 1000. 30. 1000.
1998-01-02 18:00:00 25. 27. 1000. 30. 1000.
1998-01-03 00:00:00 27. 1000. 30. 1000.

top of page Links to source data

Source Source file Format
jtwc_sh bsh091998.txt ATCF
bom IDCKMSTM0S.csv:Line=20676:SELWYN CSV file (from Excel file)
neumann tracks.sh:Storm=1111:SELWYN:BSH091998:BM873 HURDAT